createdAt,value
2018-05-23T00:02:17.754Z,18.60
2018-05-23T00:04:45.924Z,18.63
2018-05-23T00:07:14.078Z,18.59
2018-05-23T00:09:42.276Z,18.63
2018-05-23T00:12:10.441Z,18.61
2018-05-23T00:14:38.711Z,18.61
2018-05-23T00:17:06.860Z,18.60
2018-05-23T00:19:35.071Z,18.60
2018-05-23T00:22:03.233Z,18.61
2018-05-23T00:24:31.465Z,18.60
2018-05-23T00:26:59.635Z,18.65
2018-05-23T00:29:27.843Z,18.64
2018-05-23T00:31:56.596Z,18.65
2018-05-23T00:34:24.812Z,18.64
2018-05-23T00:36:52.990Z,18.64
2018-05-23T00:39:24.014Z,18.63
2018-05-23T00:41:52.161Z,18.60
2018-05-23T00:44:20.371Z,18.63
2018-05-23T00:46:48.539Z,18.63
2018-05-23T00:49:16.718Z,18.64
2018-05-23T00:51:44.879Z,18.65
2018-05-23T00:54:13.072Z,18.59
2018-05-23T00:56:41.237Z,18.57
2018-05-23T00:59:10.012Z,18.54
2018-05-23T01:01:38.185Z,18.51
2018-05-23T01:04:06.449Z,18.49
2018-05-23T01:06:34.642Z,18.48
2018-05-23T01:09:02.786Z,18.51
2018-05-23T01:11:30.999Z,18.51
2018-05-23T01:13:59.154Z,18.54
2018-05-23T01:16:27.360Z,18.55
2018-05-23T01:18:55.507Z,18.59
2018-05-23T01:21:23.722Z,18.60
2018-05-23T01:23:51.885Z,18.58
2018-05-23T01:26:27.023Z,18.59
2018-05-23T01:28:55.191Z,18.60
2018-05-23T01:31:23.401Z,18.62
2018-05-23T01:33:51.570Z,18.62
2018-05-23T01:36:19.779Z,18.64
2018-05-23T01:38:47.969Z,18.62
2018-05-23T01:41:16.153Z,18.62
2018-05-23T01:43:44.355Z,18.63
2018-05-23T01:46:12.540Z,18.66
2018-05-23T01:48:52.523Z,18.65
2018-05-23T01:51:20.674Z,18.65
2018-05-23T01:53:48.864Z,18.62
2018-05-23T01:56:17.035Z,18.62
2018-05-23T01:58:45.231Z,18.61
2018-05-23T02:01:13.441Z,18.62
2018-05-23T02:03:41.625Z,18.62
2018-05-23T02:06:09.782Z,18.62
2018-05-23T02:08:37.982Z,18.61
2018-05-23T02:11:06.193Z,18.58
2018-05-23T02:13:34.381Z,18.58
2018-05-23T02:16:02.547Z,18.60
2018-05-23T02:18:30.736Z,18.60
2018-05-23T02:20:58.909Z,18.62
2018-05-23T02:23:27.105Z,18.63
2018-05-23T02:25:55.319Z,18.63
2018-05-23T02:28:23.516Z,18.61
2018-05-23T02:30:51.687Z,18.62
2018-05-23T02:33:19.909Z,18.61
2018-05-23T02:35:48.062Z,18.60
2018-05-23T02:38:16.265Z,18.59
2018-05-23T02:40:44.442Z,18.55
2018-05-23T02:43:12.599Z,18.55
2018-05-23T02:45:40.787Z,18.55
2018-05-23T02:48:08.969Z,18.54
2018-05-23T02:50:37.186Z,18.49
2018-05-23T02:53:05.360Z,18.44
2018-05-23T02:55:33.580Z,18.43
2018-05-23T02:58:01.755Z,18.42
2018-05-23T03:00:29.963Z,18.40
2018-05-23T03:02:59.223Z,18.36
2018-05-23T03:05:27.840Z,18.35
2018-05-23T03:07:56.093Z,18.36
2018-05-23T03:10:24.285Z,18.39
2018-05-23T03:12:52.491Z,18.38
2018-05-23T03:15:20.658Z,18.38
2018-05-23T03:17:48.810Z,18.35
2018-05-23T03:20:17.008Z,18.34
2018-05-23T03:22:45.173Z,18.34
2018-05-23T03:25:13.326Z,18.34
2018-05-23T03:27:41.522Z,18.34
2018-05-23T03:30:09.674Z,18.36
2018-05-23T03:32:37.876Z,18.35
2018-05-23T03:35:06.045Z,18.33
2018-05-23T03:37:34.234Z,18.30
2018-05-23T03:40:02.408Z,18.29
2018-05-23T03:42:30.659Z,18.29
2018-05-23T03:44:58.858Z,18.31
2018-05-23T03:47:27.063Z,18.30
2018-05-23T03:49:55.242Z,18.28
2018-05-23T03:52:23.426Z,18.30
2018-05-23T03:54:51.722Z,18.29
2018-05-23T03:57:19.905Z,18.32
2018-05-23T03:59:59.932Z,18.32
2018-05-23T04:02:40.014Z,18.30
2018-05-23T04:05:19.910Z,18.25
2018-05-23T04:07:48.113Z,18.16
2018-05-23T04:10:16.275Z,18.17
2018-05-23T04:12:44.441Z,18.23
2018-05-23T04:15:12.632Z,18.22
2018-05-23T04:17:40.795Z,18.21
2018-05-23T04:20:08.986Z,18.25
2018-05-23T04:22:37.172Z,18.21
2018-05-23T04:25:05.355Z,18.27
2018-05-23T04:27:33.538Z,18.30
2018-05-23T04:30:14.364Z,18.29
2018-05-23T04:32:43.215Z,18.25
2018-05-23T04:35:11.392Z,18.25
2018-05-23T04:37:39.569Z,18.27
2018-05-23T04:40:07.773Z,18.32
2018-05-23T04:42:35.933Z,18.33
2018-05-23T04:45:04.125Z,18.29
2018-05-23T04:47:32.325Z,18.31
2018-05-23T04:50:00.507Z,18.31
2018-05-23T04:52:31.227Z,18.31
2018-05-23T04:54:59.405Z,18.36
2018-05-23T04:57:27.609Z,18.38
2018-05-23T04:59:55.801Z,18.42
2018-05-23T05:02:24.021Z,18.37
2018-05-23T05:04:52.221Z,18.39
2018-05-23T05:07:20.375Z,18.41
2018-05-23T05:09:48.579Z,18.45
2018-05-23T05:12:16.800Z,18.51
2018-05-23T05:14:57.521Z,18.54
2018-05-23T05:17:28.764Z,18.65
2018-05-23T05:20:00.899Z,18.66
2018-05-23T05:22:29.060Z,18.70
2018-05-23T05:24:57.347Z,18.74
2018-05-23T05:27:25.497Z,18.75
2018-05-23T05:29:53.677Z,18.75
2018-05-23T05:32:21.884Z,18.80
2018-05-23T05:34:50.034Z,18.85
2018-05-23T05:37:19.410Z,18.89
2018-05-23T05:39:47.655Z,18.89
2018-05-23T05:42:15.853Z,18.91
2018-05-23T05:44:44.021Z,18.98
2018-05-23T05:47:14.683Z,18.91
2018-05-23T05:49:48.460Z,18.95
2018-05-23T05:52:22.477Z,18.99
2018-05-23T05:54:55.890Z,19.02
2018-05-23T05:57:49.297Z,19.06
2018-05-23T06:00:18.501Z,19.06
2018-05-23T06:02:46.741Z,19.11
2018-05-23T06:05:14.931Z,19.14
2018-05-23T06:07:43.097Z,19.21
2018-05-23T06:10:11.312Z,19.21
2018-05-23T06:12:39.479Z,19.26
2018-05-23T06:15:07.649Z,19.25
2018-05-23T06:17:35.864Z,19.29
2018-05-23T06:20:04.066Z,19.29
2018-05-23T06:22:32.232Z,19.32
2018-05-23T06:25:00.442Z,19.37
2018-05-23T06:27:28.659Z,19.50
2018-05-23T06:30:02.793Z,19.50
2018-05-23T06:32:39.345Z,19.52
2018-05-23T06:35:12.334Z,19.61
2018-05-23T06:37:43.572Z,19.76
2018-05-23T06:40:22.032Z,19.88
2018-05-23T06:43:07.017Z,19.88
2018-05-23T06:45:39.769Z,19.95
2018-05-23T06:48:21.406Z,20.06
2018-05-23T06:50:58.389Z,20.12
2018-05-23T06:53:40.278Z,20.22
2018-05-23T06:56:16.456Z,20.35
2018-05-23T06:58:52.953Z,20.44
2018-05-23T07:01:30.514Z,20.57
2018-05-23T07:04:01.830Z,20.57
2018-05-23T07:06:30.466Z,20.54
2018-05-23T07:09:00.006Z,20.61
2018-05-23T07:11:30.658Z,20.59
2018-05-23T07:14:04.035Z,20.58
2018-05-23T07:16:32.927Z,20.71
2018-05-23T07:19:10.026Z,20.86
2018-05-23T07:21:44.776Z,20.93
2018-05-23T07:24:15.943Z,20.94
2018-05-23T07:26:55.501Z,21.13
2018-05-23T07:29:37.431Z,21.27
2018-05-23T07:32:15.217Z,21.42
2018-05-23T07:34:56.350Z,21.53
2018-05-23T07:37:33.188Z,21.58
2018-05-23T07:40:08.657Z,21.79
2018-05-23T07:42:43.487Z,21.89
2018-05-23T07:45:17.733Z,21.99
2018-05-23T07:47:53.521Z,22.15
2018-05-23T07:50:21.712Z,22.18
2018-05-23T07:53:02.004Z,22.08
2018-05-23T07:55:41.628Z,22.21
2018-05-23T07:58:15.874Z,22.30
2018-05-23T08:01:01.240Z,22.47
2018-05-23T08:03:37.863Z,22.60
2018-05-23T08:06:09.595Z,22.67
2018-05-23T08:08:41.182Z,22.69
2018-05-23T08:11:17.309Z,22.75
2018-05-23T08:13:48.294Z,22.89
2018-05-23T08:16:33.228Z,22.99
2018-05-23T08:19:09.187Z,23.07
2018-05-23T08:21:43.549Z,23.02
2018-05-23T08:24:20.859Z,23.22
2018-05-23T08:27:04.679Z,23.36
2018-05-23T08:29:37.626Z,23.45
2018-05-23T08:32:21.883Z,23.57
2018-05-23T08:35:00.814Z,23.58
2018-05-23T08:37:34.850Z,23.55
2018-05-23T08:40:09.165Z,23.50
2018-05-23T08:42:41.392Z,23.53
2018-05-23T08:45:21.808Z,23.69
2018-05-23T08:48:01.131Z,23.83
2018-05-23T08:50:41.022Z,24.15
2018-05-23T08:53:27.376Z,24.32
2018-05-23T08:56:11.384Z,24.29
2018-05-23T08:58:47.058Z,24.35
2018-05-23T09:01:30.906Z,24.31
2018-05-23T09:04:10.529Z,24.31
2018-05-23T09:06:40.828Z,24.37
2018-05-23T09:09:14.578Z,24.39
2018-05-23T09:11:53.870Z,24.05
2018-05-23T09:14:26.707Z,24.06
2018-05-23T09:17:03.371Z,24.02
2018-05-23T09:19:35.436Z,24.10
2018-05-23T09:22:11.248Z,24.18
2018-05-23T09:24:44.766Z,24.20
2018-05-23T09:27:22.576Z,24.20
2018-05-23T09:29:57.522Z,24.15
2018-05-23T09:32:38.537Z,24.08
2018-05-23T09:35:11.077Z,24.25
2018-05-23T09:37:42.132Z,24.36
2018-05-23T09:40:17.673Z,24.39
2018-05-23T09:42:59.854Z,24.43
2018-05-23T09:45:38.532Z,24.53
2018-05-23T09:48:10.408Z,24.64
2018-05-23T09:50:44.760Z,24.45
2018-05-23T09:53:24.951Z,24.44
2018-05-23T09:56:01.656Z,24.51
2018-05-23T09:58:44.064Z,24.57
2018-05-23T10:01:18.790Z,24.62
2018-05-23T10:03:57.010Z,24.61
2018-05-23T10:06:33.984Z,24.69
2018-05-23T10:09:20.338Z,24.66
2018-05-23T10:11:56.867Z,24.58
2018-05-23T10:14:37.483Z,24.54
2018-05-23T10:17:20.115Z,24.47
2018-05-23T10:19:57.308Z,24.36
2018-05-23T10:22:33.715Z,24.45
2018-05-23T10:25:14.049Z,24.54
2018-05-23T10:27:47.364Z,24.59
2018-05-23T10:30:21.666Z,24.70
2018-05-23T10:32:51.417Z,24.63
2018-05-23T10:35:19.587Z,24.68
2018-05-23T10:37:47.741Z,24.80
2018-05-23T10:40:15.939Z,24.92
2018-05-23T10:42:44.114Z,25.14
2018-05-23T10:45:12.287Z,25.34
2018-05-23T10:47:40.462Z,25.60
2018-05-23T10:50:08.638Z,25.80
2018-05-23T10:52:36.828Z,25.87
2018-05-23T10:55:05.056Z,25.80
2018-05-23T10:57:33.213Z,25.73
2018-05-23T11:00:01.431Z,25.71
2018-05-23T11:02:29.595Z,25.64
2018-05-23T11:04:57.758Z,25.60
2018-05-23T11:07:25.924Z,25.75
2018-05-23T11:09:54.122Z,25.57
2018-05-23T11:12:22.277Z,25.45
2018-05-23T11:14:50.577Z,25.34
2018-05-23T11:17:18.722Z,25.34
2018-05-23T11:19:46.931Z,25.26
2018-05-23T11:22:15.122Z,25.15
2018-05-23T11:24:43.267Z,24.85
2018-05-23T11:27:11.429Z,24.89
2018-05-23T11:29:39.651Z,24.90
2018-05-23T11:32:07.770Z,25.03
2018-05-23T11:34:35.945Z,25.02
2018-05-23T11:37:04.130Z,24.98
2018-05-23T11:39:33.634Z,24.81
2018-05-23T11:42:01.811Z,24.33
2018-05-23T11:44:30.086Z,24.15
2018-05-23T11:46:58.248Z,23.91
2018-05-23T11:49:26.437Z,23.83
2018-05-23T11:51:54.581Z,23.70
2018-05-23T11:54:22.764Z,23.52
2018-05-23T11:56:50.918Z,23.50
2018-05-23T11:59:19.104Z,23.35
2018-05-23T12:01:47.341Z,23.28
2018-05-23T12:04:15.484Z,23.31
2018-05-23T12:06:43.651Z,23.22
2018-05-23T12:09:11.918Z,23.25
2018-05-23T12:11:40.093Z,23.27
2018-05-23T12:14:08.337Z,23.19
2018-05-23T12:16:36.491Z,23.27
2018-05-23T12:19:04.657Z,23.35
2018-05-23T12:21:32.857Z,23.53
2018-05-23T12:24:01.921Z,23.57
2018-05-23T12:26:30.095Z,23.65
2018-05-23T12:28:58.278Z,23.93
2018-05-23T12:31:26.451Z,24.12
2018-05-23T12:33:54.619Z,24.29
2018-05-23T12:36:22.809Z,24.34
2018-05-23T12:38:50.989Z,24.63
2018-05-23T12:41:19.141Z,24.78
2018-05-23T12:43:47.327Z,24.84
2018-05-23T12:46:15.534Z,24.94
2018-05-23T12:48:43.671Z,25.05
2018-05-23T12:51:11.834Z,25.07
2018-05-23T12:53:40.020Z,25.05
2018-05-23T12:56:08.195Z,24.97
2018-05-23T12:58:36.372Z,24.86
2018-05-23T13:01:04.521Z,24.62
2018-05-23T13:03:32.684Z,24.52
2018-05-23T13:06:00.850Z,24.40
2018-05-23T13:08:29.009Z,24.47
2018-05-23T13:10:57.219Z,24.54
2018-05-23T13:13:25.379Z,24.63
2018-05-23T13:15:53.654Z,24.65
2018-05-23T13:18:21.800Z,24.75
2018-05-23T13:20:49.983Z,24.85
2018-05-23T13:23:18.178Z,24.90
2018-05-23T13:25:46.359Z,24.85
2018-05-23T13:28:14.508Z,24.93
2018-05-23T13:30:42.684Z,24.86
2018-05-23T13:33:10.838Z,24.97
2018-05-23T13:35:39.051Z,25.02
2018-05-23T13:38:07.207Z,25.13
2018-05-23T13:40:35.410Z,25.33
2018-05-23T13:43:03.564Z,25.65
2018-05-23T13:45:31.745Z,26.14
2018-05-23T13:48:00.730Z,26.60
2018-05-23T13:50:28.899Z,26.79
2018-05-23T13:52:57.059Z,27.16
2018-05-23T13:55:26.176Z,27.74
2018-05-23T13:57:54.362Z,28.38
2018-05-23T14:00:22.532Z,28.37
2018-05-23T14:02:50.682Z,28.26
2018-05-23T14:05:18.833Z,28.77
2018-05-23T14:07:47.044Z,28.82
2018-05-23T14:10:15.201Z,29.07
2018-05-23T14:12:43.418Z,29.12
2018-05-23T14:15:11.592Z,29.18
2018-05-23T14:17:39.755Z,29.11
2018-05-23T14:20:07.988Z,29.17
2018-05-23T14:22:36.143Z,28.84
2018-05-23T14:25:04.426Z,28.47
2018-05-23T14:27:32.591Z,28.30
2018-05-23T14:30:00.765Z,28.36
2018-05-23T14:32:28.929Z,27.83
2018-05-23T14:34:57.084Z,27.62
2018-05-23T14:37:25.300Z,27.33
2018-05-23T14:39:54.381Z,27.31
2018-05-23T14:42:22.557Z,27.35
2018-05-23T14:44:50.712Z,27.37
2018-05-23T14:47:18.907Z,27.30
2018-05-23T14:49:47.090Z,27.23
2018-05-23T14:52:15.263Z,27.01
2018-05-23T14:54:43.464Z,27.46
2018-05-23T14:57:11.637Z,28.19
2018-05-23T14:59:39.891Z,28.78
2018-05-23T15:02:08.092Z,29.16
2018-05-23T15:04:36.283Z,29.45
2018-05-23T15:07:04.438Z,29.40
2018-05-23T15:09:32.621Z,29.61
2018-05-23T15:12:00.787Z,29.67
2018-05-23T15:14:29.082Z,29.97
2018-05-23T15:16:57.223Z,30.01
2018-05-23T15:19:25.461Z,29.88
2018-05-23T15:21:53.639Z,29.94
2018-05-23T15:24:21.818Z,29.71
2018-05-23T15:26:49.986Z,29.77
2018-05-23T15:29:18.175Z,30.01
2018-05-23T15:31:46.356Z,29.99
2018-05-23T15:34:14.507Z,29.81
2018-05-23T15:36:42.698Z,29.79
2018-05-23T15:39:10.853Z,29.93
2018-05-23T15:41:39.127Z,30.04
2018-05-23T15:44:07.259Z,29.96
2018-05-23T15:46:35.468Z,30.11
2018-05-23T15:49:03.667Z,29.92
2018-05-23T15:51:31.865Z,29.73
2018-05-23T15:54:00.020Z,29.78
2018-05-23T15:56:28.948Z,29.59
2018-05-23T15:58:57.091Z,29.44
2018-05-23T16:01:25.264Z,29.25
2018-05-23T16:03:53.455Z,28.72
2018-05-23T16:06:21.622Z,28.55
2018-05-23T16:08:49.758Z,28.21
2018-05-23T16:11:17.940Z,27.77
2018-05-23T16:13:46.133Z,27.32
2018-05-23T16:16:15.369Z,26.98
2018-05-23T16:18:43.529Z,26.80
2018-05-23T16:21:11.712Z,26.50
2018-05-23T16:23:39.891Z,26.33
2018-05-23T16:26:08.045Z,26.19
2018-05-23T16:28:36.248Z,25.95
2018-05-23T16:31:04.390Z,25.79
2018-05-23T16:33:32.576Z,25.72
2018-05-23T16:36:00.805Z,25.62
2018-05-23T16:38:28.982Z,25.58
2018-05-23T16:40:57.164Z,25.52
2018-05-23T16:43:25.332Z,25.48
2018-05-23T16:45:53.529Z,25.48
2018-05-23T16:48:21.733Z,25.37
2018-05-23T16:50:49.893Z,25.37
2018-05-23T16:53:18.080Z,25.37
2018-05-23T16:55:46.238Z,25.34
2018-05-23T16:58:14.394Z,25.32
2018-05-23T17:00:42.563Z,25.32
2018-05-23T17:03:10.745Z,25.25
2018-05-23T17:05:38.889Z,25.25
2018-05-23T17:08:07.072Z,25.30
2018-05-23T17:10:35.323Z,25.45
2018-05-23T17:13:03.667Z,25.53
2018-05-23T17:15:31.872Z,25.53
2018-05-23T17:18:00.034Z,25.53
2018-05-23T17:20:28.183Z,25.55
2018-05-23T17:22:56.391Z,25.59
2018-05-23T17:25:24.562Z,25.64
2018-05-23T17:27:52.715Z,25.60
2018-05-23T17:30:20.900Z,25.62
2018-05-23T17:32:49.112Z,25.61
2018-05-23T17:35:17.341Z,25.60
2018-05-23T17:37:45.486Z,25.60
2018-05-23T17:40:13.799Z,25.52
2018-05-23T17:42:41.945Z,25.54
2018-05-23T17:45:10.105Z,25.53
2018-05-23T17:47:38.329Z,25.47
2018-05-23T17:50:06.517Z,25.45
2018-05-23T17:52:34.699Z,25.33
2018-05-23T17:55:02.875Z,25.24
2018-05-23T17:57:31.033Z,25.17
2018-05-23T17:59:59.204Z,25.13
2018-05-23T18:02:27.361Z,25.05
2018-05-23T18:04:55.537Z,25.05
2018-05-23T18:07:23.734Z,24.92
2018-05-23T18:09:51.906Z,24.82
2018-05-23T18:12:20.066Z,24.81
2018-05-23T18:14:48.211Z,24.76
2018-05-23T18:17:16.416Z,24.77
2018-05-23T18:19:44.590Z,24.76
2018-05-23T18:22:12.769Z,24.70
2018-05-23T18:24:40.940Z,24.67
2018-05-23T18:27:09.175Z,24.62
2018-05-23T18:29:37.366Z,24.69
2018-05-23T18:32:05.560Z,24.61
2018-05-23T18:34:33.789Z,24.54
2018-05-23T18:37:01.990Z,24.46
2018-05-23T18:39:30.155Z,24.46
2018-05-23T18:41:58.303Z,24.38
2018-05-23T18:44:26.483Z,24.39
2018-05-23T18:46:54.631Z,24.29
2018-05-23T18:49:22.819Z,24.24
2018-05-23T18:51:51.022Z,24.16
2018-05-23T18:54:19.283Z,24.06
2018-05-23T18:56:47.418Z,24.07
2018-05-23T18:59:15.618Z,24.07
2018-05-23T19:01:43.795Z,24.01
2018-05-23T19:04:11.981Z,23.92
2018-05-23T19:06:40.123Z,23.92
2018-05-23T19:09:08.309Z,23.78
2018-05-23T19:11:36.483Z,23.74
2018-05-23T19:14:04.685Z,23.63
2018-05-23T19:16:32.871Z,23.62
2018-05-23T19:19:01.681Z,23.57
2018-05-23T19:21:30.156Z,23.49
2018-05-23T19:23:59.918Z,23.46
2018-05-23T19:26:31.520Z,23.51
2018-05-23T19:28:59.917Z,23.47
2018-05-23T19:31:28.404Z,23.36
2018-05-23T19:33:56.917Z,23.33
2018-05-23T19:36:25.427Z,23.27
2018-05-23T19:38:54.555Z,23.25
2018-05-23T19:41:23.130Z,23.15
2018-05-23T19:43:51.514Z,23.14
2018-05-23T19:46:20.087Z,23.08
2018-05-23T19:48:48.542Z,22.99
2018-05-23T19:51:17.025Z,22.96
2018-05-23T19:53:45.283Z,22.93
2018-05-23T19:56:13.478Z,22.90
2018-05-23T19:58:41.685Z,22.94
2018-05-23T20:01:09.887Z,22.81
2018-05-23T20:03:38.091Z,22.80
2018-05-23T20:06:06.273Z,22.71
2018-05-23T20:08:34.452Z,22.71
2018-05-23T20:11:02.633Z,22.70
2018-05-23T20:13:30.812Z,22.59
2018-05-23T20:15:59.001Z,22.53
2018-05-23T20:18:27.199Z,22.50
2018-05-23T20:20:55.452Z,22.43
2018-05-23T20:23:23.623Z,22.34
2018-05-23T20:25:51.810Z,22.32
2018-05-23T20:28:20.012Z,22.30
2018-05-23T20:30:48.152Z,22.24
2018-05-23T20:33:16.343Z,22.26
2018-05-23T20:35:44.485Z,22.22
2018-05-23T20:38:13.223Z,22.25
2018-05-23T20:40:41.413Z,22.22
2018-05-23T20:43:09.579Z,22.13
2018-05-23T20:45:37.733Z,22.09
2018-05-23T20:48:05.932Z,22.07
2018-05-23T20:50:34.098Z,22.04
2018-05-23T20:53:02.273Z,21.99
2018-05-23T20:55:30.445Z,22.01
2018-05-23T20:57:58.604Z,21.98
2018-05-23T21:00:26.807Z,21.97
2018-05-23T21:02:54.968Z,21.96
2018-05-23T21:05:23.186Z,21.91
2018-05-23T21:07:51.366Z,21.87
2018-05-23T21:10:19.525Z,21.81
2018-05-23T21:12:47.714Z,21.77
2018-05-23T21:15:15.860Z,21.74
2018-05-23T21:17:44.052Z,21.76
2018-05-23T21:20:12.223Z,21.74
2018-05-23T21:22:40.390Z,21.72
2018-05-23T21:25:08.581Z,21.69
2018-05-23T21:27:36.738Z,21.68
2018-05-23T21:30:04.910Z,21.65
2018-05-23T21:32:33.087Z,21.62
2018-05-23T21:35:01.246Z,21.57
2018-05-23T21:37:29.451Z,21.67
2018-05-23T21:39:57.614Z,21.64
2018-05-23T21:42:25.810Z,21.60
2018-05-23T21:44:54.006Z,21.59
2018-05-23T21:47:22.165Z,21.60
2018-05-23T21:49:50.335Z,21.58
2018-05-23T21:52:18.549Z,21.56
2018-05-23T21:54:46.724Z,21.55
2018-05-23T21:57:14.875Z,21.62
2018-05-23T21:59:43.628Z,21.62
2018-05-23T22:02:11.788Z,21.64
2018-05-23T22:04:39.988Z,21.67
2018-05-23T22:07:08.148Z,21.69
2018-05-23T22:09:36.315Z,21.69
2018-05-23T22:12:04.528Z,21.67
2018-05-23T22:14:32.688Z,21.67
2018-05-23T22:17:00.838Z,21.66
2018-05-23T22:19:29.013Z,21.68
2018-05-23T22:21:57.169Z,21.67
2018-05-23T22:24:25.366Z,21.64
2018-05-23T22:26:53.545Z,21.66
2018-05-23T22:29:21.705Z,21.61
2018-05-23T22:31:49.895Z,21.62
2018-05-23T22:34:18.032Z,21.63
2018-05-23T22:36:46.209Z,21.63
2018-05-23T22:39:14.398Z,21.61
2018-05-23T22:41:54.964Z,21.60
2018-05-23T22:44:28.117Z,21.58
2018-05-23T22:46:56.290Z,21.54
2018-05-23T22:49:24.502Z,21.50
2018-05-23T22:51:52.666Z,21.45
2018-05-23T22:54:20.838Z,21.42
2018-05-23T22:56:49.007Z,21.39
2018-05-23T22:59:17.196Z,21.33
2018-05-23T23:01:45.358Z,21.31
2018-05-23T23:04:13.540Z,21.23
2018-05-23T23:06:43.078Z,21.17
2018-05-23T23:09:12.116Z,21.13
2018-05-23T23:11:40.617Z,21.05
2018-05-23T23:14:08.802Z,21.01
2018-05-23T23:16:37.001Z,20.99
2018-05-23T23:19:05.157Z,20.95
2018-05-23T23:21:33.369Z,20.93
2018-05-23T23:24:02.369Z,20.91
2018-05-23T23:26:30.555Z,20.88
2018-05-23T23:28:58.732Z,20.91
2018-05-23T23:31:26.906Z,20.89
2018-05-23T23:33:55.887Z,20.83
2018-05-23T23:36:24.065Z,20.80
2018-05-23T23:38:52.275Z,20.75
2018-05-23T23:41:20.457Z,20.72
2018-05-23T23:43:48.669Z,20.71
2018-05-23T23:46:16.846Z,20.68
2018-05-23T23:48:45.072Z,20.64
2018-05-23T23:51:13.265Z,20.61
2018-05-23T23:53:41.456Z,20.63
2018-05-23T23:56:09.623Z,20.62
2018-05-23T23:58:37.798Z,20.66
